createdAt,value
2022-12-03T00:04:35.735Z,35.60
2022-12-03T00:09:40.887Z,33.50
2022-12-03T00:14:44.864Z,32.20
2022-12-03T00:19:46.292Z,31.90
2022-12-03T00:24:48.053Z,33.20
2022-12-03T00:29:49.214Z,35.00
2022-12-03T00:34:50.652Z,33.80
2022-12-03T00:39:52.455Z,34.90
2022-12-03T00:44:54.008Z,32.50
2022-12-03T00:49:55.319Z,32.50
2022-12-03T00:54:56.559Z,37.40
2022-12-03T00:59:57.816Z,32.80
2022-12-03T01:04:59.154Z,36.00
2022-12-03T01:10:00.443Z,36.40
2022-12-03T01:15:01.544Z,31.60
2022-12-03T01:20:05.631Z,39.60
2022-12-03T01:25:07.425Z,35.30
2022-12-03T01:30:11.055Z,34.60
2022-12-03T01:35:12.291Z,37.90
2022-12-03T01:40:18.791Z,34.90
2022-12-03T01:45:23.415Z,33.60
2022-12-03T01:50:32.460Z,36.40
2022-12-03T01:55:33.618Z,36.20
2022-12-03T02:00:34.754Z,37.90
2022-12-03T02:05:37.299Z,32.70
2022-12-03T02:10:38.387Z,38.00
2022-12-03T02:15:40.053Z,36.30
2022-12-03T02:20:57.472Z,36.40
2022-12-03T02:25:58.708Z,36.90
2022-12-03T02:31:00.082Z,37.60
2022-12-03T02:36:03.866Z,37.50
2022-12-03T02:41:10.178Z,35.80
2022-12-03T02:46:11.888Z,36.90
2022-12-03T02:51:13.134Z,35.20
2022-12-03T02:56:17.753Z,37.70
2022-12-03T03:01:19.105Z,34.10
2022-12-03T03:06:21.278Z,33.80
2022-12-03T03:11:23.517Z,33.00
2022-12-03T03:16:24.714Z,33.80
2022-12-03T03:21:26.017Z,35.90
2022-12-03T03:26:27.388Z,37.60
2022-12-03T03:31:28.702Z,32.40
2022-12-03T03:36:31.011Z,32.80
2022-12-03T03:41:33.799Z,34.70
2022-12-03T03:46:36.677Z,33.80
2022-12-03T03:51:39.228Z,34.70
2022-12-03T03:56:41.100Z,34.20
2022-12-03T04:01:44.055Z,32.10
2022-12-03T04:06:46.237Z,33.80
2022-12-03T04:12:06.204Z,34.80
2022-12-03T04:17:07.352Z,34.90
2022-12-03T04:22:27.148Z,36.40
2022-12-03T04:27:47.155Z,36.40
2022-12-03T04:33:07.040Z,37.00
2022-12-03T04:38:09.247Z,37.30
2022-12-03T04:43:10.393Z,36.50
2022-12-03T04:48:11.553Z,37.00
2022-12-03T04:53:12.661Z,37.00
2022-12-03T04:58:13.877Z,36.30
2022-12-03T05:03:15.034Z,33.50
2022-12-03T05:08:16.206Z,34.50
2022-12-03T05:13:17.309Z,35.20
2022-12-03T05:18:18.567Z,36.30
2022-12-03T05:23:20.707Z,30.40
2022-12-03T05:28:23.812Z,36.60
2022-12-03T05:33:24.907Z,37.00
2022-12-03T05:38:26.437Z,37.50
2022-12-03T05:43:27.701Z,33.60
2022-12-03T05:48:28.862Z,34.70
2022-12-03T05:53:30.026Z,36.70
2022-12-03T05:58:31.282Z,37.30
2022-12-03T06:03:32.754Z,39.40
2022-12-03T06:08:33.991Z,40.50
2022-12-03T06:13:35.171Z,42.50
2022-12-03T06:18:36.333Z,42.30
2022-12-03T06:23:43.895Z,43.70
2022-12-03T06:28:47.112Z,39.80
2022-12-03T06:33:48.223Z,43.10
2022-12-03T06:38:49.322Z,41.20
2022-12-03T06:43:50.502Z,42.40
2022-12-03T06:48:51.645Z,39.50
2022-12-03T06:53:52.838Z,40.60
2022-12-03T06:58:54.013Z,42.70
2022-12-03T07:03:55.099Z,41.20
2022-12-03T07:08:56.170Z,48.20
2022-12-03T07:14:04.729Z,52.80
2022-12-03T07:19:06.850Z,50.40
2022-12-03T07:24:08.059Z,51.30
2022-12-03T07:29:09.275Z,54.60
2022-12-03T07:34:10.449Z,48.70
2022-12-03T07:39:11.697Z,48.90
2022-12-03T07:44:14.699Z,53.50
2022-12-03T07:49:16.093Z,51.70
2022-12-03T07:54:17.265Z,55.20
2022-12-03T07:59:18.624Z,56.00
2022-12-03T08:04:20.597Z,52.90
2022-12-03T08:09:22.036Z,53.00
2022-12-03T08:14:23.966Z,51.70
2022-12-03T08:19:26.404Z,51.40
2022-12-03T08:24:28.794Z,50.20
2022-12-03T08:29:30.625Z,51.50
2022-12-03T08:34:39.678Z,51.70
2022-12-03T08:39:54.749Z,48.30
2022-12-03T08:44:58.153Z,54.00
2022-12-03T08:50:16.889Z,53.40
2022-12-03T08:55:35.934Z,55.10
2022-12-03T09:00:37.027Z,50.90
2022-12-03T09:05:38.167Z,49.90
2022-12-03T09:10:39.451Z,47.60
2022-12-03T09:15:40.611Z,45.40
2022-12-03T09:20:41.881Z,48.50
2022-12-03T09:25:43.038Z,47.20
2022-12-03T09:30:44.195Z,47.80
2022-12-03T09:35:45.363Z,52.60
2022-12-03T09:40:46.517Z,47.50
2022-12-03T09:45:49.016Z,51.20
2022-12-03T09:50:50.572Z,51.70
2022-12-03T09:55:51.716Z,53.80
2022-12-03T10:00:53.897Z,50.60
2022-12-03T10:05:55.910Z,46.80
2022-12-03T10:10:58.291Z,46.80
2022-12-03T10:16:00.830Z,48.70
2022-12-03T10:21:02.055Z,45.30
2022-12-03T10:26:03.515Z,48.80
2022-12-03T10:31:07.332Z,46.00
2022-12-03T10:36:21.135Z,54.80
2022-12-03T10:41:25.896Z,50.40
2022-12-03T10:46:27.100Z,49.40
2022-12-03T10:51:28.471Z,49.50
2022-12-03T10:56:32.389Z,52.10
2022-12-03T11:01:33.636Z,56.60
2022-12-03T11:06:34.921Z,58.00
2022-12-03T11:11:36.385Z,60.80
2022-12-03T11:16:40.425Z,58.30
2022-12-03T11:22:04.205Z,61.80
2022-12-03T11:27:16.836Z,63.50
2022-12-03T11:32:42.857Z,54.80
2022-12-03T11:37:44.039Z,54.40
2022-12-03T11:42:46.946Z,53.30
2022-12-03T11:48:12.850Z,52.90
2022-12-03T11:53:15.928Z,48.30
2022-12-03T11:58:26.411Z,54.20
2022-12-03T12:03:33.219Z,48.60
2022-12-03T12:08:54.933Z,56.00
2022-12-03T12:14:02.654Z,55.80
2022-12-03T12:24:39.645Z,63.60
2022-12-03T12:29:42.754Z,57.10
2022-12-03T12:34:46.984Z,55.40
2022-12-03T12:39:52.218Z,63.20
2022-12-03T12:44:57.666Z,56.90
2022-12-03T12:49:59.268Z,55.50
2022-12-03T12:55:04.597Z,56.80
2022-12-03T13:00:13.090Z,55.00
2022-12-03T13:10:34.635Z,60.00
2022-12-03T13:15:44.604Z,65.00
2022-12-03T13:20:45.820Z,58.50
2022-12-03T13:26:19.391Z,60.20
2022-12-03T13:31:29.038Z,60.00
2022-12-03T13:36:39.010Z,55.00
2022-12-03T13:42:00.652Z,54.00
2022-12-03T13:47:12.954Z,56.80
2022-12-03T13:52:18.846Z,59.10
2022-12-03T13:57:20.664Z,51.80
2022-12-03T14:02:21.942Z,55.10
2022-12-03T14:07:23.152Z,53.20
2022-12-03T14:12:28.401Z,53.30
2022-12-03T14:17:30.594Z,55.10
2022-12-03T14:22:31.749Z,51.20
2022-12-03T14:27:33.420Z,57.80
2022-12-03T14:32:34.584Z,65.40
2022-12-03T14:37:35.705Z,61.10
2022-12-03T14:42:36.901Z,60.60
2022-12-03T14:47:38.268Z,60.60
2022-12-03T14:52:40.248Z,61.80
2022-12-03T14:57:41.409Z,59.20
2022-12-03T15:02:42.694Z,73.10
2022-12-03T15:07:44.113Z,60.60
2022-12-03T15:12:45.304Z,64.80
2022-12-03T15:17:46.698Z,61.00
2022-12-03T15:22:47.777Z,68.00
2022-12-03T15:27:49.109Z,60.00
2022-12-03T15:32:50.203Z,58.60
2022-12-03T15:37:51.304Z,53.70
2022-12-03T15:42:52.876Z,58.50
2022-12-03T15:47:54.040Z,59.20
2022-12-03T15:52:55.504Z,57.10
2022-12-03T15:57:56.605Z,58.90
2022-12-03T16:02:57.868Z,62.10
2022-12-03T16:07:59.341Z,65.10
2022-12-03T16:13:00.554Z,71.80
2022-12-03T16:18:01.651Z,66.50
2022-12-03T16:23:02.785Z,71.90
2022-12-03T16:28:03.931Z,70.10
2022-12-03T16:33:05.022Z,66.80
2022-12-03T16:38:06.151Z,66.80
2022-12-03T16:43:09.111Z,65.30
2022-12-03T16:48:10.314Z,70.50
2022-12-03T16:53:11.889Z,69.70
2022-12-03T16:58:13.048Z,70.40
2022-12-03T17:03:15.158Z,70.10
2022-12-03T17:08:16.682Z,64.30
2022-12-03T17:13:18.024Z,62.80
2022-12-03T17:18:19.218Z,63.20
2022-12-03T17:23:20.486Z,59.60
2022-12-03T17:28:21.753Z,59.10
2022-12-03T17:33:22.898Z,58.30
2022-12-03T17:38:23.967Z,53.30
2022-12-03T17:43:25.071Z,59.20
2022-12-03T17:48:30.590Z,60.70
2022-12-03T17:53:31.747Z,58.70
2022-12-03T17:58:32.912Z,56.90
2022-12-03T18:03:34.014Z,58.20
2022-12-03T18:08:35.335Z,58.10
2022-12-03T18:13:36.607Z,55.80
2022-12-03T18:18:37.865Z,55.70
2022-12-03T18:23:39.638Z,58.40
2022-12-03T18:28:40.906Z,53.70
2022-12-03T18:33:42.264Z,61.10
2022-12-03T18:38:43.801Z,62.60
2022-12-03T18:43:45.304Z,58.00
2022-12-03T18:48:48.819Z,67.60
2022-12-03T18:53:51.211Z,57.80
2022-12-03T18:58:52.464Z,57.50
2022-12-03T19:03:53.777Z,63.90
2022-12-03T19:08:54.850Z,58.00
2022-12-03T19:13:58.054Z,57.70
2022-12-03T19:18:59.128Z,62.40
2022-12-03T19:24:23.308Z,67.10
2022-12-03T19:29:22.679Z,66.60
2022-12-03T19:34:23.841Z,62.70
2022-12-03T19:39:24.975Z,64.70
2022-12-03T19:44:26.068Z,61.90
2022-12-03T19:49:27.423Z,63.90
2022-12-03T19:54:28.478Z,67.80
2022-12-03T19:59:29.744Z,58.30
2022-12-03T20:04:30.852Z,63.50
2022-12-03T20:09:31.959Z,68.20
2022-12-03T20:14:33.048Z,62.70
2022-12-03T20:19:34.183Z,77.10
2022-12-03T20:24:35.254Z,73.10
2022-12-03T20:29:36.403Z,67.20
2022-12-03T20:34:37.535Z,68.30
2022-12-03T20:39:38.823Z,67.40
2022-12-03T20:44:39.984Z,69.30
2022-12-03T20:49:41.273Z,65.30
2022-12-03T20:54:42.509Z,63.30
2022-12-03T20:59:43.668Z,65.10
2022-12-03T21:04:44.723Z,66.70
2022-12-03T21:09:45.868Z,69.20
2022-12-03T21:14:47.155Z,64.60
2022-12-03T21:19:48.517Z,66.60
2022-12-03T21:24:49.578Z,60.90
2022-12-03T21:29:50.944Z,58.40
2022-12-03T21:34:52.079Z,57.20
2022-12-03T21:39:53.553Z,54.40
2022-12-03T21:44:55.097Z,56.50
2022-12-03T21:49:56.435Z,61.50
2022-12-03T21:54:57.766Z,63.40
2022-12-03T21:59:59.232Z,70.60
2022-12-03T22:05:00.400Z,72.90
2022-12-03T22:10:02.683Z,63.50
2022-12-03T22:15:06.017Z,65.50
2022-12-03T22:20:08.114Z,55.90
2022-12-03T22:25:09.371Z,51.70
2022-12-03T22:30:10.699Z,54.80
2022-12-03T22:35:11.862Z,54.70
2022-12-03T22:40:13.226Z,51.20
2022-12-03T22:45:14.596Z,52.70
2022-12-03T22:50:15.852Z,51.70
2022-12-03T22:55:17.006Z,50.20
2022-12-03T23:00:36.939Z,53.70
2022-12-03T23:05:38.897Z,51.20
2022-12-03T23:10:47.875Z,53.60
2022-12-03T23:15:51.613Z,55.80
2022-12-03T23:20:55.391Z,57.00
2022-12-03T23:26:01.666Z,56.80
2022-12-03T23:31:05.160Z,56.60
2022-12-03T23:36:07.368Z,59.40
2022-12-03T23:41:14.566Z,56.90
2022-12-03T23:46:19.717Z,59.20
2022-12-03T23:51:24.060Z,56.30
2022-12-03T23:56:30.437Z,60.70
